Time;durP1;ratioP1;P1;durP2;ratioP2;P2;SDS_P1;SDS_P2;PMS_P1;PMS_P2;Temp;Humidity;BMP_temperature;BMP_pressure;BME280_temperature;BME280_humidity;BME280_pressure;Samples;Min_cycle;Max_cycle;Signal;HPM_P1;HPM_P2
2022/03/13 00:00:11;;;;;;;37.03;15.33;;;6.50;96.40;;;;;;5053027;28;20169;-76
2022/03/13 00:02:40;;;;;;;39.30;14.90;;;6.60;95.50;;;;;;5052448;28;20268;-76
2022/03/13 00:05:12;;;;;;;38.27;16.37;;;6.60;95.80;;;;;;5052795;28;20200;-76
2022/03/13 00:07:39;;;;;;;47.60;18.70;;;6.50;96.20;;;;;;5052824;28;20177;-76
2022/03/13 00:10:05;;;;;;;67.90;23.37;;;6.40;95.50;;;;;;5052920;28;20261;-76
2022/03/13 00:12:31;;;;;;;37.80;16.27;;;6.10;97.70;;;;;;5052884;28;20534;-76
2022/03/13 00:14:59;;;;;;;38.90;16.93;;;5.90;99.80;;;;;;5052378;28;20181;-76
2022/03/13 00:17:28;;;;;;;43.33;17.90;;;6.00;99.90;;;;;;5052927;28;20171;-76
2022/03/13 00:19:59;;;;;;;43.83;17.73;;;6.10;99.90;;;;;;5052696;28;20201;-76
2022/03/13 00:22:25;;;;;;;39.80;16.80;;;6.20;99.90;;;;;;5052633;28;20187;-75
2022/03/13 00:24:51;;;;;;;44.10;18.00;;;6.20;99.60;;;;;;5052472;28;20197;-76
2022/03/13 00:27:16;;;;;;;44.30;17.07;;;6.10;99.50;;;;;;5052564;28;20267;-76
2022/03/13 00:29:42;;;;;;;35.70;17.03;;;6.20;99.00;;;;;;5052420;28;20203;-76
2022/03/13 00:32:08;;;;;;;41.57;17.20;;;6.20;98.60;;;;;;5052361;28;20172;-77
2022/03/13 00:34:35;;;;;;;34.63;15.30;;;6.10;98.70;;;;;;5052439;28;20173;-76
2022/03/13 00:37:00;;;;;;;36.83;15.23;;;5.90;99.90;;;;;;5052468;28;20166;-75
2022/03/13 00:39:27;;;;;;;31.67;15.20;;;6.00;99.50;;;;;;5052336;28;20659;-75
2022/03/13 00:41:53;;;;;;;37.93;16.40;;;5.80;99.90;;;;;;5052089;28;20180;-75
2022/03/13 00:44:19;;;;;;;38.40;17.00;;;5.50;99.90;;;;;;5052147;28;20169;-76
2022/03/13 00:46:45;;;;;;;45.60;18.53;;;5.60;99.90;;;;;;5052007;28;20661;-75
2022/03/13 00:49:11;;;;;;;40.33;17.17;;;5.50;99.90;;;;;;5052064;28;20200;-76
2022/03/13 00:51:37;;;;;;;38.83;16.47;;;5.70;99.90;;;;;;5051964;28;20216;-76
2022/03/13 00:54:04;;;;;;;45.23;19.40;;;5.80;99.90;;;;;;5052103;28;20201;-76
2022/03/13 00:56:31;;;;;;;65.57;22.77;;;5.60;99.90;;;;;;5051824;28;20218;-75
2022/03/13 00:58:57;;;;;;;53.50;21.23;;;5.80;99.90;;;;;;5051034;28;20206;-77
2022/03/13 01:01:23;;;;;;;52.00;20.20;;;5.60;99.90;;;;;;5051629;28;20165;-76
2022/03/13 01:03:51;;;;;;;45.50;17.97;;;5.70;99.90;;;;;;5051984;28;20169;-76
2022/03/13 01:06:18;;;;;;;45.23;18.30;;;5.90;99.40;;;;;;5051844;28;20218;-78
2022/03/13 01:08:46;;;;;;;42.90;17.83;;;5.70;99.90;;;;;;5051893;28;20263;-78
2022/03/13 01:11:12;;;;;;;40.20;16.90;;;6.00;99.90;;;;;;5051537;28;20173;-78
2022/03/13 01:13:38;;;;;;;38.83;17.63;;;5.70;99.90;;;;;;5051713;28;20172;-77
2022/03/13 01:16:25;;;;;;;42.37;16.83;;;5.50;99.90;;;;;;5051490;28;20236;-79
2022/03/13 01:18:55;;;;;;;37.87;16.37;;;5.50;99.90;;;;;;5051693;28;20280;-78
2022/03/13 01:21:22;;;;;;;37.87;17.10;;;5.60;99.90;;;;;;5051560;28;20169;-77
2022/03/13 01:24:00;;;;;;;43.43;18.83;;;5.60;99.90;;;;;;5051458;28;20184;-78
2022/03/13 01:26:25;;;;;;;43.07;17.37;;;5.60;99.90;;;;;;5051380;28;20283;-79
2022/03/13 01:28:53;;;;;;;39.60;15.80;;;5.60;99.90;;;;;;5052611;28;20274;-78
2022/03/13 01:31:26;;;;;;;37.57;16.33;;;5.50;99.90;;;;;;5051034;28;20584;-78
2022/03/13 01:33:52;;;;;;;40.47;17.00;;;5.50;99.90;;;;;;5051823;28;20575;-76
2022/03/13 01:36:17;;;;;;;37.63;16.93;;;5.40;99.90;;;;;;5051490;28;20647;-79
2022/03/13 01:38:43;;;;;;;37.70;17.27;;;5.30;99.90;;;;;;5051276;28;20193;-77
2022/03/13 01:41:09;;;;;;;41.07;17.77;;;5.30;99.90;;;;;;5051288;28;20526;-78
2022/03/13 01:43:36;;;;;;;41.80;17.13;;;5.40;99.90;;;;;;5051168;28;20213;-75
2022/03/13 01:46:03;;;;;;;41.53;17.53;;;5.20;99.90;;;;;;5051090;28;20193;-76
2022/03/13 01:48:38;;;;;;;39.63;17.13;;;5.20;99.90;;;;;;5034693;28;20321;-76
2022/03/13 01:51:05;;;;;;;63.60;23.57;;;5.30;99.90;;;;;;5050893;28;20183;-76
2022/03/13 01:53:32;;;;;;;54.90;21.57;;;5.40;99.90;;;;;;5050835;28;20174;-75
2022/03/13 01:55:58;;;;;;;67.07;24.90;;;5.40;99.90;;;;;;5050819;28;20181;-76
2022/03/13 01:58:24;;;;;;;68.00;23.50;;;5.40;99.90;;;;;;5050572;28;20569;-76
2022/03/13 02:00:50;;;;;;;47.50;18.40;;;5.40;99.90;;;;;;5052084;28;20540;-76
2022/03/13 02:03:16;;;;;;;48.13;20.10;;;5.40;99.90;;;;;;5050383;28;20175;-76
2022/03/13 02:05:45;;;;;;;41.83;18.10;;;5.40;99.90;;;;;;5050681;28;20200;-77
2022/03/13 02:08:19;;;;;;;41.07;17.20;;;5.30;99.90;;;;;;5052224;28;20530;-78
2022/03/13 02:10:45;;;;;;;40.43;17.00;;;5.10;99.90;;;;;;5050614;28;20575;-78
2022/03/13 02:13:13;;;;;;;45.17;17.67;;;5.10;99.90;;;;;;5051848;28;20175;-78
2022/03/13 02:15:39;;;;;;;31.93;14.73;;;5.10;99.90;;;;;;5050258;28;20637;-77
2022/03/13 02:18:06;;;;;;;34.57;15.40;;;5.20;99.90;;;;;;5050595;28;20282;-78
2022/03/13 02:20:38;;;;;;;32.87;15.27;;;5.10;99.90;;;;;;5050531;28;20181;-78
2022/03/13 02:23:21;;;;;;;42.17;16.90;;;5.20;99.90;;;;;;5051748;28;20174;-78
2022/03/13 02:25:57;;;;;;;33.73;15.70;;;5.40;99.90;;;;;;5050392;28;20212;-77
2022/03/13 02:28:29;;;;;;;40.23;15.73;;;5.20;99.90;;;;;;5050486;28;20190;-77
2022/03/13 02:31:03;;;;;;;36.30;15.10;;;5.30;99.90;;;;;;5050360;28;20249;-78
2022/03/13 02:33:29;;;;;;;33.83;14.77;;;5.20;99.90;;;;;;5050379;28;20184;-77
2022/03/13 02:36:02;;;;;;;37.37;15.17;;;5.10;99.90;;;;;;5051681;28;20174;-78
2022/03/13 02:38:29;;;;;;;40.23;16.00;;;5.00;99.90;;;;;;5050409;28;20197;-77
2022/03/13 02:40:56;;;;;;;35.80;15.57;;;4.90;99.90;;;;;;5050264;28;20206;-77
2022/03/13 02:43:23;;;;;;;36.57;15.10;;;4.80;99.90;;;;;;5050124;28;20184;-77
2022/03/13 02:45:50;;;;;;;33.90;14.60;;;4.70;99.90;;;;;;5062819;23;20218;-90
2022/03/13 02:48:17;;;;;;;33.40;14.63;;;4.90;99.60;;;;;;5053685;28;20196;-87
2022/03/13 02:50:43;;;;;;;31.90;14.60;;;5.00;99.20;;;;;;5055636;28;20218;-90
2022/03/13 02:53:09;;;;;;;37.97;16.13;;;5.10;98.30;;;;;;5054103;28;20200;-88
2022/03/13 02:55:35;;;;;;;37.87;15.67;;;5.00;99.70;;;;;;5054195;28;20260;-88
2022/03/13 02:58:01;;;;;;;33.47;15.00;;;4.90;99.90;;;;;;5054579;28;20202;-88
2022/03/13 03:00:57;;;;;;;40.00;15.30;;;4.70;99.90;;;;;;5056655;22;20645;-73
2022/03/13 03:03:23;;;;;;;33.80;15.07;;;4.70;99.90;;;;;;5036655;28;20184;-74
2022/03/13 03:05:50;;;;;;;29.53;14.40;;;4.70;99.90;;;;;;5050091;28;20208;-74
2022/03/13 03:08:16;;;;;;;28.70;15.07;;;4.60;99.90;;;;;;5049659;28;20221;-74
2022/03/13 03:10:43;;;;;;;35.30;14.70;;;4.70;99.90;;;;;;5049145;28;20593;-74
2022/03/13 03:13:09;;;;;;;27.37;14.03;;;4.60;99.90;;;;;;5049516;28;20581;-74
2022/03/13 03:15:35;;;;;;;28.23;13.07;;;4.70;99.90;;;;;;5049463;28;20174;-73
2022/03/13 03:18:03;;;;;;;28.33;13.47;;;4.80;99.20;;;;;;5049721;28;20197;-73
2022/03/13 03:20:29;;;;;;;28.63;12.63;;;4.90;98.00;;;;;;5050297;28;20170;-74
2022/03/13 03:22:55;;;;;;;35.67;12.43;;;4.90;96.80;;;;;;5051801;28;20184;-73
2022/03/13 03:25:24;;;;;;;26.20;11.97;;;4.80;96.80;;;;;;5053693;28;20574;-73
2022/03/13 03:27:50;;;;;;;27.67;11.33;;;4.90;96.20;;;;;;5053665;28;20198;-73
2022/03/13 03:30:20;;;;;;;26.10;11.53;;;4.80;95.80;;;;;;5053679;28;20250;-73
2022/03/13 03:32:47;;;;;;;25.87;11.77;;;4.70;96.10;;;;;;5053585;28;20248;-74
2022/03/13 03:35:13;;;;;;;31.17;11.10;;;4.60;96.10;;;;;;5053772;28;20244;-74
2022/03/13 03:37:39;;;;;;;23.30;10.53;;;4.60;95.70;;;;;;5054790;28;20177;-74
2022/03/13 03:40:05;;;;;;;26.90;11.37;;;4.70;95.60;;;;;;5053452;28;20282;-74
2022/03/13 03:42:31;;;;;;;23.03;10.77;;;4.70;95.30;;;;;;5053410;28;20599;-74
2022/03/13 03:44:57;;;;;;;25.07;10.90;;;4.70;95.20;;;;;;5053245;28;20300;-73
2022/03/13 03:47:23;;;;;;;32.33;11.20;;;4.80;94.80;;;;;;5053500;28;20229;-74
2022/03/13 03:49:49;;;;;;;23.30;10.97;;;4.80;94.70;;;;;;5053226;28;20698;-73
2022/03/13 03:52:15;;;;;;;22.47;10.87;;;4.70;94.60;;;;;;5054339;28;20178;-74
2022/03/13 03:54:40;;;;;;;25.37;11.30;;;4.70;94.30;;;;;;5053160;28;20664;-73
2022/03/13 03:57:06;;;;;;;28.27;11.83;;;4.80;94.10;;;;;;5053326;28;20252;-73
2022/03/13 03:59:31;;;;;;;24.17;10.77;;;4.70;94.10;;;;;;5052961;28;20212;-73
2022/03/13 04:01:57;;;;;;;21.97;10.27;;;4.70;94.00;;;;;;5052575;28;20649;-74
2022/03/13 04:04:23;;;;;;;25.27;10.93;;;4.60;93.80;;;;;;5053133;28;20635;-73
2022/03/13 04:06:49;;;;;;;25.93;10.40;;;4.60;93.80;;;;;;5052913;28;20256;-74
2022/03/13 04:09:15;;;;;;;18.97;9.43;;;4.50;94.30;;;;;;5052889;28;20205;-74
2022/03/13 04:11:41;;;;;;;21.60;10.30;;;4.60;93.90;;;;;;5052908;28;20190;-74
2022/03/13 04:14:08;;;;;;;23.07;9.83;;;4.50;94.20;;;;;;5052762;28;20581;-74
2022/03/13 04:16:34;;;;;;;21.40;10.50;;;4.40;94.00;;;;;;5052654;28;20520;-74
2022/03/13 04:19:00;;;;;;;23.70;10.03;;;4.50;93.70;;;;;;5052872;28;20194;-73
2022/03/13 04:21:26;;;;;;;22.47;10.43;;;4.60;93.40;;;;;;5052319;28;20721;-73
2022/03/13 04:23:53;;;;;;;24.90;10.07;;;4.60;93.20;;;;;;5052659;28;20237;-73
2022/03/13 04:26:20;;;;;;;20.10;9.23;;;4.60;93.20;;;;;;5052672;28;20712;-74
2022/03/13 04:28:49;;;;;;;21.27;9.53;;;4.60;92.80;;;;;;5052384;28;20621;-73
2022/03/13 04:31:16;;;;;;;22.90;9.70;;;4.70;92.70;;;;;;5052380;28;20178;-73
2022/03/13 04:33:42;;;;;;;21.90;9.47;;;4.60;93.00;;;;;;5051282;28;20170;-74
2022/03/13 04:36:14;;;;;;;20.90;9.37;;;4.60;92.80;;;;;;5052824;28;20185;-73
2022/03/13 04:38:43;;;;;;;24.07;9.50;;;4.40;93.30;;;;;;5052504;28;20205;-73
2022/03/13 04:41:10;;;;;;;22.83;9.87;;;4.30;93.60;;;;;;5052648;28;20188;-74
2022/03/13 04:43:35;;;;;;;21.60;10.10;;;4.30;93.80;;;;;;5052370;28;20169;-73
2022/03/13 04:46:01;;;;;;;24.00;10.07;;;4.30;93.90;;;;;;5052316;28;20208;-74
2022/03/13 04:48:27;;;;;;;21.03;9.70;;;4.30;94.00;;;;;;5052226;28;20200;-74
2022/03/13 04:50:53;;;;;;;27.20;10.00;;;4.20;93.70;;;;;;5052306;28;20178;-74
2022/03/13 04:53:18;;;;;;;19.03;9.50;;;4.30;94.00;;;;;;5051755;28;20195;-74
2022/03/13 04:55:44;;;;;;;19.57;9.83;;;4.30;93.90;;;;;;5052361;28;20181;-73
2022/03/13 04:58:10;;;;;;;25.50;9.87;;;4.30;93.30;;;;;;5052136;28;20197;-74
2022/03/13 05:00:38;;;;;;;23.23;9.87;;;4.20;93.70;;;;;;5052039;28;20217;-73
2022/03/13 05:03:05;;;;;;;19.10;9.00;;;4.10;93.60;;;;;;5051741;28;20177;-73
2022/03/13 05:05:34;;;;;;;25.47;9.83;;;4.10;93.50;;;;;;5051975;28;20622;-74
2022/03/13 05:08:04;;;;;;;22.87;9.80;;;4.10;93.40;;;;;;5051972;28;20286;-73
2022/03/13 05:10:35;;;;;;;24.67;10.60;;;3.90;93.90;;;;;;5051367;28;20593;-74
2022/03/13 05:13:01;;;;;;;20.03;9.20;;;4.00;93.80;;;;;;5051681;28;20170;-74
2022/03/13 05:15:27;;;;;;;20.17;9.43;;;3.90;93.90;;;;;;5051216;28;20181;-73
2022/03/13 05:17:52;;;;;;;20.33;9.47;;;3.90;94.20;;;;;;5051398;28;20606;-73
2022/03/13 05:20:18;;;;;;;19.53;9.53;;;4.00;93.60;;;;;;5051524;28;20200;-74
2022/03/13 05:22:44;;;;;;;21.80;9.57;;;4.10;93.40;;;;;;5051363;28;20212;-74
2022/03/13 05:25:09;;;;;;;22.50;10.30;;;3.90;93.60;;;;;;5051596;28;20681;-74
2022/03/13 05:27:35;;;;;;;22.97;9.77;;;4.00;93.60;;;;;;5051388;28;20585;-74
2022/03/13 05:30:01;;;;;;;19.80;9.67;;;3.90;93.80;;;;;;5051387;28;20173;-74
2022/03/13 05:32:27;;;;;;;20.20;10.07;;;3.90;93.50;;;;;;5051092;28;20649;-74
2022/03/13 05:34:53;;;;;;;20.00;9.97;;;4.00;93.40;;;;;;5051340;28;20188;-74
2022/03/13 05:37:19;;;;;;;25.50;9.57;;;4.00;93.20;;;;;;5051211;28;20710;-74
2022/03/13 05:39:45;;;;;;;20.60;9.60;;;3.80;93.30;;;;;;5051488;28;20309;-74
2022/03/13 05:42:11;;;;;;;19.47;9.80;;;3.80;93.50;;;;;;5051077;28;20181;-74
2022/03/13 05:44:36;;;;;;;19.80;9.23;;;3.80;93.80;;;;;;5050922;28;20675;-74
2022/03/13 05:47:02;;;;;;;21.97;9.67;;;3.80;93.80;;;;;;5051082;28;20244;-74
2022/03/13 05:49:28;;;;;;;21.17;9.70;;;3.60;94.40;;;;;;5051004;28;20204;-74
2022/03/13 05:51:54;;;;;;;23.93;9.73;;;3.60;94.90;;;;;;5050804;28;20169;-74
2022/03/13 05:54:20;;;;;;;29.77;10.97;;;3.60;95.60;;;;;;5050936;28;20179;-73
2022/03/13 05:56:46;;;;;;;22.70;11.33;;;3.70;95.50;;;;;;5050910;28;20250;-73
2022/03/13 05:59:12;;;;;;;22.50;10.77;;;3.70;96.70;;;;;;5050715;28;20646;-73
2022/03/13 06:01:38;;;;;;;26.57;10.50;;;3.70;95.50;;;;;;5050651;28;20264;-73
2022/03/13 06:04:08;;;;;;;23.17;9.57;;;3.70;95.80;;;;;;5050714;28;20536;-74
2022/03/13 06:06:34;;;;;;;20.83;10.70;;;3.80;94.70;;;;;;5050717;28;20291;-73
2022/03/13 06:09:00;;;;;;;22.57;10.63;;;3.80;94.40;;;;;;5050501;28;20683;-74
2022/03/13 06:11:26;;;;;;;23.63;10.50;;;3.70;94.70;;;;;;5050617;28;20264;-74
2022/03/13 06:13:51;;;;;;;22.43;11.00;;;3.60;95.70;;;;;;5050543;28;20181;-73
2022/03/13 06:16:18;;;;;;;22.70;11.07;;;3.70;95.60;;;;;;5050271;28;20173;-73
2022/03/13 06:18:45;;;;;;;27.60;10.70;;;3.80;95.90;;;;;;5050616;28;20529;-73
2022/03/13 06:21:13;;;;;;;20.20;9.70;;;3.80;96.20;;;;;;5050373;28;20188;-74
2022/03/13 06:23:38;;;;;;;17.90;9.37;;;3.80;95.20;;;;;;5050533;28;20177;-73
2022/03/13 06:26:04;;;;;;;22.20;9.83;;;3.80;94.60;;;;;;5050615;28;20209;-74
2022/03/13 06:28:31;;;;;;;19.43;9.60;;;3.90;94.40;;;;;;5050135;28;20735;-73
2022/03/13 06:30:56;;;;;;;21.17;10.07;;;4.00;94.30;;;;;;5050615;28;20170;-74
2022/03/13 06:33:22;;;;;;;22.53;10.07;;;4.20;94.10;;;;;;5050449;28;20545;-74
2022/03/13 06:35:48;;;;;;;23.37;9.80;;;4.30;93.60;;;;;;5050510;28;20258;-73
2022/03/13 06:38:14;;;;;;;22.20;9.90;;;4.40;93.80;;;;;;5050352;28;20202;-73
2022/03/13 06:40:39;;;;;;;19.33;9.83;;;4.40;92.80;;;;;;5050631;28;20180;-73
2022/03/13 06:43:06;;;;;;;22.13;9.20;;;4.60;92.50;;;;;;5050100;28;20595;-75
2022/03/13 06:45:32;;;;;;;22.70;9.57;;;4.70;92.00;;;;;;5050390;28;20574;-74
2022/03/13 06:47:58;;;;;;;19.40;9.10;;;4.80;90.70;;;;;;5050431;28;20189;-73
2022/03/13 06:50:23;;;;;;;19.87;9.17;;;5.10;90.90;;;;;;5050429;28;20585;-73
2022/03/13 06:52:50;;;;;;;21.20;9.17;;;5.50;89.70;;;;;;5050117;28;20212;-73
2022/03/13 06:55:18;;;;;;;22.60;9.17;;;5.90;87.20;;;;;;5050415;28;20196;-74
2022/03/13 06:57:44;;;;;;;26.07;9.43;;;5.90;88.50;;;;;;5052051;28;20273;-74
2022/03/13 07:00:12;;;;;;;21.27;8.90;;;5.90;88.10;;;;;;5054220;28;20288;-73
2022/03/13 07:02:38;;;;;;;18.73;8.90;;;6.60;84.90;;;;;;5053969;28;20188;-73
2022/03/13 07:05:04;;;;;;;16.63;8.57;;;7.40;80.80;;;;;;5053897;28;20207;-73
2022/03/13 07:07:30;;;;;;;26.00;9.97;;;7.10;80.60;;;;;;5054043;28;20637;-74
2022/03/13 07:09:57;;;;;;;16.87;8.60;;;7.20;80.70;;;;;;5054235;28;20176;-73
2022/03/13 07:12:24;;;;;;;20.90;9.30;;;7.30;78.10;;;;;;5053983;28;20173;-74
2022/03/13 07:14:51;;;;;;;15.90;8.67;;;8.10;77.60;;;;;;5054188;28;20174;-74
2022/03/13 07:17:17;;;;;;;20.93;9.30;;;8.90;72.50;;;;;;5053765;28;20193;-73
2022/03/13 07:19:44;;;;;;;18.07;8.30;;;9.30;74.10;;;;;;5054079;28;20234;-74
2022/03/13 07:22:11;;;;;;;19.03;9.00;;;9.00;71.30;;;;;;5053883;28;20193;-74
2022/03/13 07:24:37;;;;;;;17.83;8.90;;;8.60;74.90;;;;;;5053735;28;20272;-74
2022/03/13 07:27:03;;;;;;;14.70;8.87;;;9.70;70.60;;;;;;5055143;28;20616;-73
2022/03/13 07:29:29;;;;;;;19.87;8.50;;;10.50;68.20;;;;;;5053493;28;20197;-74
2022/03/13 07:31:56;;;;;;;18.07;9.20;;;11.60;67.70;;;;;;5053611;28;20521;-74
2022/03/13 07:34:23;;;;;;;17.07;8.80;;;11.90;63.60;;;;;;5053876;28;20633;-76
2022/03/13 07:36:51;;;;;;;16.83;9.43;;;12.80;61.90;;;;;;5054259;28;20189;-77
2022/03/13 07:39:18;;;;;;;19.50;9.70;;;12.10;62.30;;;;;;5054512;28;20720;-77
2022/03/13 07:41:44;;;;;;;16.27;8.73;;;11.20;63.70;;;;;;5054287;28;20547;-77
2022/03/13 07:44:10;;;;;;;13.60;8.70;;;11.40;62.80;;;;;;5054137;28;20177;-78
2022/03/13 07:46:36;;;;;;;17.43;9.13;;;11.20;65.10;;;;;;5054063;28;20205;-78
2022/03/13 07:49:02;;;;;;;17.03;8.87;;;11.90;62.90;;;;;;5054526;28;20224;-78
2022/03/13 07:51:28;;;;;;;17.83;8.90;;;12.70;61.30;;;;;;5054667;28;20235;-78
2022/03/13 07:53:54;;;;;;;13.50;8.20;;;13.30;59.10;;;;;;5054618;28;20180;-78
2022/03/13 07:56:20;;;;;;;13.27;9.03;;;13.10;59.30;;;;;;5054615;28;20184;-77
2022/03/13 07:58:46;;;;;;;19.37;8.50;;;13.00;59.60;;;;;;5053968;28;20209;-78
2022/03/13 08:01:12;;;;;;;13.53;8.57;;;13.30;59.00;;;;;;5053959;28;20185;-78
2022/03/13 08:03:38;;;;;;;15.30;8.47;;;14.30;57.40;;;;;;5053564;28;20185;-78
2022/03/13 08:06:07;;;;;;;12.40;8.27;;;13.90;56.90;;;;;;5055191;28;20205;-78
2022/03/13 08:08:33;;;;;;;13.47;8.67;;;13.40;58.40;;;;;;5054230;28;20197;-79
2022/03/13 08:10:58;;;;;;;14.43;8.83;;;12.50;58.80;;;;;;5053481;28;20174;-78
2022/03/13 08:13:24;;;;;;;14.43;8.23;;;12.70;59.60;;;;;;5053334;28;20174;-77
2022/03/13 08:15:50;;;;;;;14.30;7.90;;;13.10;60.70;;;;;;5053497;28;20700;-77
2022/03/13 08:18:15;;;;;;;13.50;8.70;;;12.70;59.10;;;;;;5053573;28;20232;-77
2022/03/13 08:20:41;;;;;;;14.07;8.67;;;12.70;61.80;;;;;;5053817;28;20207;-79
2022/03/13 08:23:07;;;;;;;15.33;9.60;;;12.20;60.40;;;;;;5053313;28;20183;-77
2022/03/13 08:25:33;;;;;;;18.73;10.87;;;11.80;61.30;;;;;;5052979;28;20201;-78
2022/03/13 08:27:59;;;;;;;23.43;13.27;;;11.20;63.70;;;;;;5053392;28;20204;-77
2022/03/13 08:30:25;;;;;;;16.50;9.87;;;12.00;62.90;;;;;;5053780;28;20526;-78
2022/03/13 08:32:50;;;;;;;15.30;8.70;;;12.00;59.80;;;;;;5053195;28;20180;-77
2022/03/13 08:35:17;;;;;;;12.93;8.20;;;12.70;60.80;;;;;;5053221;28;20178;-78
2022/03/13 08:37:43;;;;;;;13.57;8.37;;;12.80;59.00;;;;;;5052988;28;20177;-78
2022/03/13 08:40:11;;;;;;;13.00;8.13;;;13.50;55.80;;;;;;5052678;28;20208;-76
2022/03/13 08:42:36;;;;;;;15.17;8.50;;;14.20;54.80;;;;;;5052674;28;20235;-76
2022/03/13 08:45:03;;;;;;;15.73;8.57;;;13.80;56.30;;;;;;5053982;28;20197;-76
2022/03/13 08:47:28;;;;;;;14.10;8.47;;;13.80;56.70;;;;;;5052878;28;20188;-76
2022/03/13 08:49:55;;;;;;;14.37;8.40;;;12.90;59.00;;;;;;5053184;28;20173;-77
2022/03/13 08:52:21;;;;;;;15.23;8.57;;;12.90;57.50;;;;;;5053422;28;20509;-77
2022/03/13 08:54:46;;;;;;;13.07;7.60;;;12.50;57.10;;;;;;5054339;28;20616;-78
2022/03/13 08:57:12;;;;;;;13.60;8.30;;;12.40;57.60;;;;;;5054512;28;20169;-77
2022/03/13 08:59:38;;;;;;;12.57;8.33;;;12.40;57.10;;;;;;5052816;28;20669;-77
2022/03/13 09:02:05;;;;;;;17.03;10.57;;;12.20;56.30;;;;;;5052567;28;20176;-78
2022/03/13 09:04:31;;;;;;;14.57;8.67;;;12.80;57.50;;;;;;5052100;28;20177;-78
2022/03/13 09:06:57;;;;;;;14.47;7.93;;;13.00;56.10;;;;;;5053984;28;20251;-77
2022/03/13 09:09:23;;;;;;;13.77;7.80;;;12.20;57.80;;;;;;5057544;28;20693;-77
2022/03/13 09:11:51;;;;;;;14.93;7.73;;;12.90;56.10;;;;;;5056648;28;20180;-77
2022/03/13 09:14:17;;;;;;;16.63;8.00;;;12.30;55.90;;;;;;5055750;28;20549;-78
2022/03/13 09:16:43;;;;;;;11.30;7.07;;;12.50;55.90;;;;;;5053317;28;20177;-77
2022/03/13 09:19:09;;;;;;;15.73;7.73;;;12.30;56.70;;;;;;5053243;28;20251;-77
2022/03/13 09:21:38;;;;;;;13.00;7.80;;;12.70;57.10;;;;;;5053699;28;20189;-78
2022/03/13 09:24:09;;;;;;;14.10;7.00;;;12.50;58.60;;;;;;5054255;28;20181;-78
2022/03/13 09:26:36;;;;;;;14.97;8.13;;;12.80;55.90;;;;;;5053713;28;20262;-77
2022/03/13 09:29:03;;;;;;;13.73;7.50;;;13.20;54.90;;;;;;5052875;28;20200;-77
2022/03/13 09:31:29;;;;;;;14.13;7.50;;;12.80;56.20;;;;;;5052694;28;20234;-77
2022/03/13 09:33:54;;;;;;;13.83;7.93;;;13.00;55.00;;;;;;5052361;28;20174;-78
2022/03/13 09:36:20;;;;;;;12.83;7.57;;;13.20;54.90;;;;;;5051580;28;20558;-77
2022/03/13 09:38:45;;;;;;;13.60;7.40;;;12.70;55.80;;;;;;5050066;28;20216;-78
2022/03/13 09:41:12;;;;;;;14.03;7.80;;;13.60;55.60;;;;;;5051633;28;20209;-78
2022/03/13 09:43:38;;;;;;;15.10;7.80;;;13.10;54.60;;;;;;5052024;28;20210;-78
2022/03/13 09:46:04;;;;;;;14.77;8.00;;;13.30;55.50;;;;;;5051735;28;20311;-78
2022/03/13 09:48:32;;;;;;;14.50;7.73;;;13.50;54.40;;;;;;5050363;28;20197;-77
2022/03/13 09:51:00;;;;;;;13.00;8.13;;;13.40;56.10;;;;;;5051475;28;20268;-77
2022/03/13 09:53:25;;;;;;;15.83;7.37;;;13.50;56.20;;;;;;5051388;28;20177;-78
2022/03/13 09:55:51;;;;;;;11.33;7.10;;;14.00;55.50;;;;;;5050016;28;20239;-78
2022/03/13 09:58:17;;;;;;;11.57;7.40;;;13.80;55.00;;;;;;5050921;28;20572;-77
2022/03/13 10:00:42;;;;;;;13.67;7.30;;;13.70;54.50;;;;;;5050799;28;20556;-77
2022/03/13 10:03:11;;;;;;;15.40;8.13;;;13.60;55.60;;;;;;5050868;28;20181;-78
2022/03/13 10:05:45;;;;;;;11.80;7.07;;;13.90;54.60;;;;;;5051619;28;20271;-77
2022/03/13 10:08:12;;;;;;;12.60;7.30;;;14.00;54.80;;;;;;5051350;28;20193;-78
2022/03/13 10:10:44;;;;;;;16.47;7.07;;;13.60;55.20;;;;;;5051733;28;20173;-77
2022/03/13 10:13:14;;;;;;;13.53;7.97;;;14.10;55.10;;;;;;5051703;28;20587;-77
2022/03/13 10:15:46;;;;;;;14.23;7.60;;;14.00;53.90;;;;;;5051148;28;20189;-78
2022/03/13 10:18:18;;;;;;;13.00;7.50;;;14.50;55.60;;;;;;5051512;28;20685;-79
2022/03/13 10:20:45;;;;;;;13.93;7.87;;;14.50;55.20;;;;;;5051008;28;20181;-77
2022/03/13 10:23:15;;;;;;;12.30;7.57;;;14.50;54.50;;;;;;5051057;28;20264;-77
2022/03/13 10:25:42;;;;;;;16.20;7.90;;;13.90;53.90;;;;;;5051268;28;20673;-77
2022/03/13 10:28:20;;;;;;;17.73;8.43;;;14.00;54.50;;;;;;5050908;28;20200;-78
2022/03/13 10:31:08;;;;;;;17.17;8.10;;;14.50;54.10;;;;;;5051595;28;20177;-78
2022/03/13 10:33:43;;;;;;;12.70;7.60;;;14.60;55.10;;;;;;5052198;28;20268;-77
2022/03/13 10:36:16;;;;;;;13.50;7.73;;;14.70;54.60;;;;;;5051253;28;20183;-79
2022/03/13 10:38:43;;;;;;;16.83;8.33;;;14.40;54.20;;;;;;5051492;28;20287;-78
2022/03/13 10:41:10;;;;;;;17.63;7.63;;;14.20;53.60;;;;;;5051982;28;20173;-77
2022/03/13 10:43:45;;;;;;;15.30;8.77;;;14.40;54.30;;;;;;5052827;28;20179;-77
2022/03/13 10:46:23;;;;;;;16.03;8.57;;;14.70;53.90;;;;;;5051114;28;20245;-79
2022/03/13 10:48:49;;;;;;;21.20;8.77;;;14.60;54.70;;;;;;5051332;28;20235;-78
2022/03/13 10:51:15;;;;;;;14.13;7.90;;;14.60;55.20;;;;;;5050875;28;20572;-79
2022/03/13 10:53:41;;;;;;;13.63;7.63;;;14.70;55.20;;;;;;5051027;28;20522;-77
2022/03/13 10:56:09;;;;;;;16.10;8.37;;;14.70;54.00;;;;;;5050814;28;20177;-78
2022/03/13 10:58:40;;;;;;;15.13;8.33;;;15.00;55.10;;;;;;5051043;28;20222;-78
2022/03/13 11:01:11;;;;;;;14.40;8.53;;;14.90;53.80;;;;;;5050969;28;20188;-78
2022/03/13 11:03:59;;;;;;;20.20;8.40;;;14.90;55.00;;;;;;5050520;28;20641;-78
2022/03/13 11:06:26;;;;;;;14.57;8.47;;;14.70;55.10;;;;;;5051125;28;20644;-78
2022/03/13 11:08:55;;;;;;;14.83;8.03;;;14.70;56.00;;;;;;5050668;28;20193;-78
2022/03/13 11:11:27;;;;;;;24.17;9.23;;;14.40;55.00;;;;;;5050213;28;20264;-78
2022/03/13 11:13:59;;;;;;;19.00;9.13;;;14.50;55.60;;;;;;5047612;28;20208;-77
2022/03/13 11:16:25;;;;;;;20.43;8.93;;;15.00;56.20;;;;;;5049778;28;20221;-76
2022/03/13 11:18:53;;;;;;;14.67;8.67;;;15.30;57.10;;;;;;5049352;28;20194;-77
2022/03/13 11:21:20;;;;;;;15.77;8.27;;;15.30;57.20;;;;;;5049361;28;20176;-78
2022/03/13 11:23:46;;;;;;;16.30;9.47;;;15.60;55.70;;;;;;5049430;28;20234;-78
2022/03/13 11:26:15;;;;;;;23.70;9.60;;;15.80;56.60;;;;;;5049161;28;20296;-78
2022/03/13 11:28:46;;;;;;;27.50;9.53;;;16.20;58.10;;;;;;5050197;28;20203;-78
2022/03/13 11:31:31;;;;;;;21.87;9.30;;;15.50;55.70;;;;;;5052527;28;20178;-79
2022/03/13 11:34:16;;;;;;;21.60;9.70;;;15.10;56.70;;;;;;5062250;28;20169;-78
2022/03/13 11:36:51;;;;;;;16.37;9.13;;;15.30;56.00;;;;;;5056462;28;20178;-78
2022/03/13 11:39:31;;;;;;;21.27;9.73;;;15.70;56.70;;;;;;5050868;28;20201;-78
2022/03/13 11:41:58;;;;;;;16.07;9.07;;;15.80;56.10;;;;;;5051848;28;20655;-78
2022/03/13 11:44:25;;;;;;;17.00;8.80;;;16.20;57.10;;;;;;5053970;28;20216;-78
2022/03/13 11:46:55;;;;;;;18.63;9.10;;;16.40;56.80;;;;;;5055881;28;20255;-79
2022/03/13 11:49:30;;;;;;;17.30;9.87;;;15.70;57.20;;;;;;5056285;28;20280;-78
2022/03/13 11:52:11;;;;;;;19.20;9.80;;;15.50;58.50;;;;;;5056800;28;20168;-78
2022/03/13 11:57:42;;;;;;;20.13;9.33;;;15.90;57.40;;;;;;5056427;28;20172;-79
2022/03/13 12:00:28;;;;;;;18.07;10.13;;;16.10;58.10;;;;;;5052473;28;20198;-80
2022/03/13 12:03:06;;;;;;;17.23;9.27;;;16.30;57.20;;;;;;5058059;28;20241;-79
2022/03/13 12:05:33;;;;;;;20.93;9.63;;;16.60;58.80;;;;;;5058440;28;20204;-78
2022/03/13 12:08:06;;;;;;;18.43;8.87;;;16.80;56.90;;;;;;5055829;28;20193;-79
2022/03/13 12:10:41;;;;;;;16.33;9.17;;;17.60;56.60;;;;;;5056800;28;20173;-78
2022/03/13 12:13:09;;;;;;;17.30;9.50;;;17.20;55.70;;;;;;5057906;28;20217;-79
2022/03/13 12:15:36;;;;;;;19.03;10.23;;;17.40;57.40;;;;;;5056481;28;20231;-78
2022/03/13 12:18:25;;;;;;;18.87;10.37;;;17.30;57.80;;;;;;5056140;28;20205;-78
2022/03/13 12:20:52;;;;;;;18.60;10.47;;;17.10;57.20;;;;;;5057209;28;20193;-79
2022/03/13 12:23:29;;;;;;;22.70;10.80;;;16.80;58.00;;;;;;5057487;28;20257;-79
2022/03/13 12:26:21;;;;;;;22.77;11.50;;;16.80;59.50;;;;;;5056205;28;20196;-79
2022/03/13 12:28:49;;;;;;;19.33;11.03;;;16.90;59.20;;;;;;5057555;28;20568;-80
2022/03/13 12:31:15;;;;;;;20.97;11.50;;;16.90;59.20;;;;;;5057721;28;20268;-82
2022/03/13 12:33:46;;;;;;;20.80;11.23;;;17.10;59.80;;;;;;5057501;28;20176;-79
2022/03/13 12:36:12;;;;;;;17.43;9.77;;;17.00;58.30;;;;;;5056231;28;20177;-79
2022/03/13 12:38:43;;;;;;;20.63;11.20;;;16.70;58.90;;;;;;5057038;28;20554;-79
2022/03/13 12:41:11;;;;;;;22.17;10.27;;;16.80;59.60;;;;;;5058521;28;20629;-79
2022/03/13 12:43:49;;;;;;;21.30;10.40;;;17.10;59.10;;;;;;5058075;28;20248;-79